createdAt,value
2022-08-05T00:02:23.074Z,100094.16
2022-08-05T00:07:59.663Z,100101.34
2022-08-05T00:12:55.738Z,100094.66
2022-08-05T00:17:59.772Z,100087.50
2022-08-05T00:23:12.717Z,100092.56
2022-08-05T00:28:16.217Z,100083.56
2022-08-05T00:34:55.424Z,100089.91
2022-08-05T00:38:57.202Z,100088.38
2022-08-05T00:44:03.067Z,100084.75
2022-08-05T00:49:06.075Z,100089.00
2022-08-05T00:54:13.187Z,100080.81
2022-08-05T00:59:15.973Z,100083.84
2022-08-05T01:04:20.293Z,100083.78
2022-08-05T01:09:30.454Z,100077.06
2022-08-05T01:14:40.714Z,100077.09
2022-08-05T01:20:03.419Z,100075.81
2022-08-05T01:25:20.908Z,100072.59
2022-08-05T01:30:34.130Z,100068.63
2022-08-05T01:35:51.540Z,100072.28
2022-08-05T01:40:59.563Z,100081.50
2022-08-05T01:46:07.350Z,100078.94
2022-08-05T01:51:21.977Z,100083.63
2022-08-05T01:58:09.566Z,100081.59
2022-08-05T02:02:00.764Z,100085.47
2022-08-05T02:07:04.245Z,100080.06
2022-08-05T02:12:25.349Z,100080.06
2022-08-05T02:18:30.687Z,100082.63
2022-08-05T02:23:12.000Z,100075.84
2022-08-05T02:28:29.258Z,100085.19
2022-08-05T02:33:48.455Z,100073.25
2022-08-05T02:38:55.110Z,100076.16
2022-08-05T02:44:06.185Z,100078.84
2022-08-05T02:49:17.091Z,100076.88
2022-08-05T02:54:35.755Z,100076.25
2022-08-05T02:59:48.101Z,100073.44
2022-08-05T03:04:56.597Z,100065.78
2022-08-05T03:09:59.659Z,100062.50
2022-08-05T03:15:04.429Z,100060.25
2022-08-05T03:20:10.602Z,100050.16
2022-08-05T03:26:03.718Z,100052.50
2022-08-05T03:30:43.357Z,100048.88
2022-08-05T03:35:48.000Z,100052.22
2022-08-05T03:40:52.783Z,100051.41
2022-08-05T03:45:58.678Z,100060.56
2022-08-05T03:52:38.612Z,100053.88
2022-08-05T03:56:46.691Z,100059.03
2022-08-05T04:01:52.355Z,100066.91
2022-08-05T04:06:56.059Z,100065.59
2022-08-05T04:11:59.930Z,100067.03
2022-08-05T04:17:03.919Z,100067.16
2022-08-05T04:22:12.082Z,100067.47
2022-08-05T04:27:15.457Z,100059.16
2022-08-05T04:32:30.561Z,100063.06
2022-08-05T04:38:01.191Z,100066.13
2022-08-05T04:42:59.888Z,100062.50
2022-08-05T04:48:16.317Z,100061.81
2022-08-05T04:53:21.479Z,100064.09
2022-08-05T04:58:24.463Z,100063.13
2022-08-05T05:03:29.190Z,100062.47
2022-08-05T05:08:44.814Z,100058.53
2022-08-05T05:13:52.860Z,100052.75
2022-08-05T05:19:19.023Z,100057.44
2022-08-05T05:24:21.852Z,100058.03
2022-08-05T05:29:24.589Z,100050.53
2022-08-05T05:34:47.373Z,100042.75
2022-08-05T05:39:50.325Z,100046.16
2022-08-05T05:44:53.076Z,100045.28
2022-08-05T05:50:04.233Z,100037.00
2022-08-05T05:55:13.364Z,100038.69
2022-08-05T06:00:21.896Z,100041.44
2022-08-05T06:05:34.483Z,100037.75
2022-08-05T06:10:44.249Z,100033.00
2022-08-05T06:16:29.446Z,100033.69
2022-08-05T06:21:19.044Z,100037.13
2022-08-05T06:26:24.909Z,100031.59
2022-08-05T06:31:32.236Z,100032.53
2022-08-05T06:36:53.459Z,100031.03
2022-08-05T06:42:04.126Z,100031.13
2022-08-05T06:47:10.317Z,100025.25
2022-08-05T06:52:37.067Z,100022.03
2022-08-05T06:58:02.630Z,100021.53
2022-08-05T07:03:04.936Z,100019.38
2022-08-05T07:08:12.497Z,100019.63
2022-08-05T07:13:59.871Z,100023.66
2022-08-05T07:19:03.029Z,100020.88
2022-08-05T07:24:11.226Z,100017.00
2022-08-05T07:29:16.003Z,100009.22
2022-08-05T07:34:25.195Z,100004.81
2022-08-05T07:40:26.887Z,100003.00
2022-08-05T07:44:54.289Z,100002.28
2022-08-05T07:49:58.323Z,99994.75
2022-08-05T07:55:02.492Z,100000.03
2022-08-05T08:00:11.400Z,100004.22
2022-08-05T08:05:15.627Z,99999.38
2022-08-05T08:10:20.974Z,100002.09
2022-08-05T08:15:37.311Z,99985.13
2022-08-05T08:21:02.713Z,99994.63
2022-08-05T08:26:07.609Z,99980.31
2022-08-05T08:31:15.101Z,99981.97
2022-08-05T08:36:29.648Z,99979.41
2022-08-05T08:41:51.180Z,99977.31
2022-08-05T08:46:56.479Z,99978.78
2022-08-05T08:52:19.841Z,99975.31
2022-08-05T08:57:23.950Z,99965.56
2022-08-05T09:02:46.514Z,99969.59
2022-08-05T09:07:57.348Z,99962.03
2022-08-05T09:13:05.300Z,99957.53
2022-08-05T09:18:10.050Z,99946.72
2022-08-05T09:23:21.790Z,99948.06
2022-08-05T09:28:31.857Z,99939.38
2022-08-05T09:33:51.857Z,99932.94
2022-08-05T09:39:03.190Z,99921.69
2022-08-05T09:44:06.115Z,99924.38
2022-08-05T09:49:40.462Z,99911.44
2022-08-05T09:55:56.197Z,99908.06
2022-08-05T10:00:35.171Z,99895.31
2022-08-05T10:05:38.866Z,99898.38
2022-08-05T10:10:44.709Z,99894.31
2022-08-05T10:15:47.678Z,99892.03
2022-08-05T10:20:57.039Z,99879.53
2022-08-05T10:26:07.020Z,99879.16
2022-08-05T10:33:01.071Z,99872.41
2022-08-05T10:36:40.532Z,99856.97
2022-08-05T10:42:08.139Z,99864.94
2022-08-05T10:47:26.055Z,99859.34
2022-08-05T10:52:54.036Z,99855.06
2022-08-05T10:58:14.915Z,99846.97
2022-08-05T11:03:24.699Z,99839.34
2022-08-05T11:08:37.196Z,99835.81
2022-08-05T11:13:55.127Z,99830.31
2022-08-05T11:20:10.501Z,99830.13
2022-08-05T11:26:04.993Z,99823.66
2022-08-05T11:30:58.439Z,99823.84
2022-08-05T11:36:08.962Z,99822.63
2022-08-05T11:41:54.366Z,99818.94
2022-08-05T11:46:58.464Z,99825.84
2022-08-05T11:52:15.066Z,99819.00
2022-08-05T11:57:25.659Z,99821.34
2022-08-05T12:02:36.126Z,99819.06
2022-08-05T12:08:09.255Z,99816.72
2022-08-05T12:13:15.953Z,99808.00
2022-08-05T12:18:33.262Z,99807.53
2022-08-05T12:23:36.369Z,99797.31
2022-08-05T12:28:46.455Z,99800.47
2022-08-05T12:33:50.743Z,99794.47
2022-08-05T12:38:58.236Z,99783.72
2022-08-05T12:44:14.549Z,99789.06
2022-08-05T12:50:03.253Z,99785.16
2022-08-05T12:55:26.261Z,99785.38
2022-08-05T13:02:02.844Z,99789.84
2022-08-05T13:05:56.614Z,99781.22
2022-08-05T13:11:04.381Z,99765.50
2022-08-05T13:16:15.366Z,99756.69
2022-08-05T13:21:20.460Z,99744.91
2022-08-05T13:26:29.825Z,99740.66
2022-08-05T13:31:34.103Z,99739.72
2022-08-05T13:36:55.958Z,99734.88
2022-08-05T13:41:58.791Z,99718.75
2022-08-05T13:47:08.587Z,99721.47
2022-08-05T13:52:29.085Z,99721.22
2022-08-05T13:57:48.960Z,99720.28
2022-08-05T14:02:57.332Z,99712.97
2022-08-05T14:08:05.762Z,99705.47
2022-08-05T14:13:15.418Z,99699.25
2022-08-05T14:18:23.418Z,99698.09
2022-08-05T14:23:29.668Z,99690.09
2022-08-05T14:28:52.183Z,99692.19
2022-08-05T14:34:00.480Z,99688.25
2022-08-05T14:39:05.796Z,99696.72
2022-08-05T14:44:20.687Z,99690.75
2022-08-05T14:49:24.668Z,99681.25
2022-08-05T14:54:52.806Z,99676.31
2022-08-05T14:59:56.240Z,99671.13
2022-08-05T15:04:59.345Z,99664.34
2022-08-05T15:10:03.803Z,99661.00
2022-08-05T15:15:13.669Z,99660.78
2022-08-05T15:20:24.716Z,99664.78
2022-08-05T15:25:51.424Z,99659.16
2022-08-05T15:30:52.969Z,99655.03
2022-08-05T15:35:56.359Z,99642.66
2022-08-05T15:41:22.191Z,99637.53
2022-08-05T15:46:24.925Z,99645.53
2022-08-05T15:52:09.738Z,99636.22
2022-08-05T15:56:52.572Z,99640.47
2022-08-05T16:01:55.425Z,99644.56
2022-08-05T16:07:02.589Z,99631.94
2022-08-05T16:12:06.246Z,99643.16
2022-08-05T16:17:09.666Z,99648.91
2022-08-05T16:22:15.578Z,99651.47
2022-08-05T16:27:18.823Z,99650.41
2022-08-05T16:32:28.748Z,99635.56
2022-08-05T16:38:02.845Z,99642.00
2022-08-05T16:42:57.644Z,99644.19
2022-08-05T16:48:02.912Z,99641.03
2022-08-05T16:53:12.264Z,99634.28
2022-08-05T16:58:25.750Z,99634.66
2022-08-05T17:03:29.241Z,99637.75
2022-08-05T17:08:52.461Z,99633.56
2022-08-05T17:14:05.199Z,99636.44
2022-08-05T17:19:09.548Z,99645.97
2022-08-05T17:24:31.263Z,99650.75
2022-08-05T17:29:40.965Z,99654.84
2022-08-05T17:34:47.647Z,99657.59
2022-08-05T17:39:51.214Z,99660.28
2022-08-05T17:44:58.931Z,99653.16
2022-08-05T17:50:10.189Z,99669.41
2022-08-05T17:55:13.974Z,99675.91
2022-08-05T18:00:18.723Z,99674.69
2022-08-05T18:05:21.968Z,99679.56
2022-08-05T18:10:24.803Z,99678.28
2022-08-05T18:15:34.155Z,99681.53
2022-08-05T18:20:38.012Z,99676.47
2022-08-05T18:25:45.193Z,99673.31
2022-08-05T18:30:51.137Z,99693.06
2022-08-05T18:36:04.894Z,99687.09
2022-08-05T18:41:57.940Z,99688.94
2022-08-05T18:46:31.601Z,99697.09
2022-08-05T18:52:06.401Z,99696.34
2022-08-05T18:57:15.183Z,99701.06
2022-08-05T19:02:28.671Z,99704.34
2022-08-05T19:07:45.394Z,99702.16
2022-08-05T19:12:50.244Z,99716.03
2022-08-05T19:18:08.875Z,99725.88
2022-08-05T19:24:04.520Z,99733.00
2022-08-05T19:28:37.528Z,99723.94
2022-08-05T19:33:48.323Z,99726.22
2022-08-05T19:39:00.841Z,99726.63
2022-08-05T19:44:13.833Z,99730.88
2022-08-05T19:49:17.885Z,99727.19
2022-08-05T19:54:25.606Z,99729.75
2022-08-05T19:59:56.487Z,99727.16
2022-08-05T20:04:58.754Z,99725.06
2022-08-05T20:10:11.711Z,99719.19
2022-08-05T20:15:23.330Z,99731.78
2022-08-05T20:20:46.628Z,99740.31
2022-08-05T20:25:52.201Z,99738.75
2022-08-05T20:30:55.360Z,99739.03
2022-08-05T20:35:58.362Z,99737.72
2022-08-05T20:41:01.287Z,99740.75
2022-08-05T20:46:24.859Z,99737.28
2022-08-05T20:51:28.181Z,99751.22
2022-08-05T20:56:34.243Z,99751.03
2022-08-05T21:01:45.255Z,99763.00
2022-08-05T21:06:48.248Z,99766.84
2022-08-05T21:12:09.427Z,99762.81
2022-08-05T21:17:14.145Z,99762.84
2022-08-05T21:22:21.893Z,99762.06
2022-08-05T21:27:27.452Z,99775.13
2022-08-05T21:32:30.587Z,99784.34
2022-08-05T21:37:35.053Z,99771.03
2022-08-05T21:42:45.275Z,99775.09
2022-08-05T21:47:56.272Z,99779.47
2022-08-05T21:53:08.334Z,99783.53
2022-08-05T21:58:20.594Z,99776.75
2022-08-05T22:03:49.118Z,99780.53
2022-08-05T22:08:55.706Z,99791.13
2022-08-05T22:14:05.862Z,99788.13
2022-08-05T22:19:57.176Z,99782.97
2022-08-05T22:25:03.978Z,99783.22
2022-08-05T22:30:14.217Z,99787.00
2022-08-05T22:35:17.140Z,99780.72
2022-08-05T22:40:20.525Z,99788.84
2022-08-05T22:45:26.345Z,99782.31
2022-08-05T22:50:29.677Z,99783.16
2022-08-05T22:55:37.137Z,99785.28
2022-08-05T23:00:57.082Z,99786.91
2022-08-05T23:06:00.220Z,99774.91
2022-08-05T23:11:04.210Z,99778.91
2022-08-05T23:16:07.140Z,99781.81
2022-08-05T23:21:11.320Z,99778.78
2022-08-05T23:26:20.009Z,99778.22
2022-08-05T23:31:24.581Z,99775.97
2022-08-05T23:36:28.471Z,99772.97
2022-08-05T23:41:48.368Z,99774.53
2022-08-05T23:46:51.618Z,99772.25
2022-08-05T23:52:13.334Z,99771.38
2022-08-05T23:57:19.868Z,99768.88
